Skip Navigation Links Skip Navigation Links

Current Weather

Henderson, Las Vegas, Nev.

For information only: do not use for flight planning or navigation.
Latest weather
Observation time Monday, September 16, 2019 10:56 PM PDT
Local time Tuesday, September 17, 2019 12:03 AM PDT
Flight conditions Visual Meteorological Conditions
Winds
Wind direction Southwest (220°)
Wind speed 21 mph
Wind gusting to 28 mph
Visibility 10 mi.
Sky condition
Ceiling unlimited
Sky clear
Temperature 80°F
Dewpoint 30°F
Altimeter 29.81 in.Hg
Pressure change last 3 hours-0.01 in.Hg
Pressure rising, then falling
Derived measurements
Relative humidity 16%
Heat index 80°F
Density altitude 4026 ft.
Sea-level pressure 29.77 in.Hg
Climate data
Temperature minimum, last 6 hours 80°F
Temperature maximum, last 6 hours 91°F
Remarks
Fully automated report.
Automated weather observing station with precipitation discriminator.
METAR KHND 170556Z AUTO 22018G24KT 10SM CLR 27/M01 A2981 RMK AO2 SLP081 T02671011 10328 20267 50002

Settings

Location code

InnerDrive.Weather 4.0.6770.0 Release CLR 4.0.30319.42000
Copyright ©2018 Inner Drive Technology. All rights reserved. Portions Copyright ©1986-2018 David Braverman.

Find weather

Site navigation


Skip Navigation Links

Place info

Page info

PayPal - The safer, easier way to pay online!

Return home.

Copyright ©2019 Inner Drive Technology. Purveyors of fine, hand-crafted computer software. Page printed 2019-09-17T07:03:11 UTC.